sensor_id;sensor_type;location;lat;lon;timestamp;temperature;humidity
15364;DHT22;7781;49.690;6.472;2024-01-30T00:00:08;0.80;99.90
15364;DHT22;7781;49.690;6.472;2024-01-30T00:02:38;0.80;99.90
15364;DHT22;7781;49.690;6.472;2024-01-30T00:05:06;0.80;99.90
15364;DHT22;7781;49.690;6.472;2024-01-30T00:07:35;0.80;99.90
15364;DHT22;7781;49.690;6.472;2024-01-30T00:10:05;0.70;99.90
15364;DHT22;7781;49.690;6.472;2024-01-30T00:12:34;0.70;99.90
15364;DHT22;7781;49.690;6.472;2024-01-30T00:15:04;0.80;99.90
15364;DHT22;7781;49.690;6.472;2024-01-30T00:17:38;0.70;99.90
15364;DHT22;7781;49.690;6.472;2024-01-30T00:20:07;0.70;99.90
15364;DHT22;7781;49.690;6.472;2024-01-30T00:22:37;0.70;99.90
15364;DHT22;7781;49.690;6.472;2024-01-30T00:25:06;0.70;99.90
15364;DHT22;7781;49.690;6.472;2024-01-30T00:27:38;0.70;99.90
15364;DHT22;7781;49.690;6.472;2024-01-30T00:30:08;0.70;99.90
15364;DHT22;7781;49.690;6.472;2024-01-30T00:32:38;0.70;99.90
15364;DHT22;7781;49.690;6.472;2024-01-30T00:35:08;0.80;99.90
15364;DHT22;7781;49.690;6.472;2024-01-30T00:37:38;0.70;99.90
15364;DHT22;7781;49.690;6.472;2024-01-30T00:40:08;0.70;99.90
15364;DHT22;7781;49.690;6.472;2024-01-30T00:42:41;0.70;99.90
15364;DHT22;7781;49.690;6.472;2024-01-30T00:45:13;0.60;99.90
15364;DHT22;7781;49.690;6.472;2024-01-30T00:47:44;0.60;99.90
15364;DHT22;7781;49.690;6.472;2024-01-30T00:50:14;0.50;99.90
15364;DHT22;7781;49.690;6.472;2024-01-30T00:52:43;0.50;99.90
15364;DHT22;7781;49.690;6.472;2024-01-30T00:55:12;0.50;99.90
15364;DHT22;7781;49.690;6.472;2024-01-30T00:57:41;0.50;99.90
15364;DHT22;7781;49.690;6.472;2024-01-30T01:00:13;0.40;99.90
15364;DHT22;7781;49.690;6.472;2024-01-30T01:02:48;0.40;99.90
15364;DHT22;7781;49.690;6.472;2024-01-30T01:05:18;0.30;99.90
15364;DHT22;7781;49.690;6.472;2024-01-30T01:07:48;0.30;99.90
15364;DHT22;7781;49.690;6.472;2024-01-30T01:10:17;0.30;99.90
15364;DHT22;7781;49.690;6.472;2024-01-30T01:12:46;0.30;99.90
15364;DHT22;7781;49.690;6.472;2024-01-30T01:15:14;0.30;99.90
15364;DHT22;7781;49.690;6.472;2024-01-30T01:17:49;0.30;99.90
15364;DHT22;7781;49.690;6.472;2024-01-30T01:20:18;0.30;99.90
15364;DHT22;7781;49.690;6.472;2024-01-30T01:22:46;0.30;99.90
15364;DHT22;7781;49.690;6.472;2024-01-30T01:25:15;0.20;99.90
15364;DHT22;7781;49.690;6.472;2024-01-30T01:27:43;0.30;99.90
15364;DHT22;7781;49.690;6.472;2024-01-30T01:30:19;0.20;99.90
15364;DHT22;7781;49.690;6.472;2024-01-30T01:32:50;0.20;99.90
15364;DHT22;7781;49.690;6.472;2024-01-30T01:35:22;0.10;99.90
15364;DHT22;7781;49.690;6.472;2024-01-30T01:37:52;0.10;99.90
15364;DHT22;7781;49.690;6.472;2024-01-30T01:40:23;0.10;99.90
15364;DHT22;7781;49.690;6.472;2024-01-30T01:42:53;0.10;99.90
15364;DHT22;7781;49.690;6.472;2024-01-30T01:45:22;0.10;99.90
15364;DHT22;7781;49.690;6.472;2024-01-30T01:47:52;0.10;99.90
15364;DHT22;7781;49.690;6.472;2024-01-30T01:50:21;0.10;99.90
15364;DHT22;7781;49.690;6.472;2024-01-30T01:52:52;0.10;99.90
15364;DHT22;7781;49.690;6.472;2024-01-30T01:55:22;0.10;99.90
15364;DHT22;7781;49.690;6.472;2024-01-30T01:57:53;0.10;99.90
15364;DHT22;7781;49.690;6.472;2024-01-30T02:00:22;0.10;99.90
15364;DHT22;7781;49.690;6.472;2024-01-30T02:02:55;0.10;99.90
15364;DHT22;7781;49.690;6.472;2024-01-30T02:05:25;0.10;99.90
15364;DHT22;7781;49.690;6.472;2024-01-30T02:07:55;0.10;99.90
15364;DHT22;7781;49.690;6.472;2024-01-30T02:10:25;0.10;99.90
15364;DHT22;7781;49.690;6.472;2024-01-30T02:12:58;0.10;99.90
15364;DHT22;7781;49.690;6.472;2024-01-30T02:15:27;0.10;99.90
15364;DHT22;7781;49.690;6.472;2024-01-30T02:17:57;0.10;99.90
15364;DHT22;7781;49.690;6.472;2024-01-30T02:20:29;0.10;99.90
15364;DHT22;7781;49.690;6.472;2024-01-30T02:23:01;0.00;99.90
15364;DHT22;7781;49.690;6.472;2024-01-30T02:25:32;0.10;99.90
15364;DHT22;7781;49.690;6.472;2024-01-30T02:28:01;0.10;99.90
15364;DHT22;7781;49.690;6.472;2024-01-30T02:30:30;0.00;99.90
15364;DHT22;7781;49.690;6.472;2024-01-30T02:32:58;0.00;99.90
15364;DHT22;7781;49.690;6.472;2024-01-30T02:35:27;0.00;99.90
15364;DHT22;7781;49.690;6.472;2024-01-30T02:37:56;0.00;99.90
15364;DHT22;7781;49.690;6.472;2024-01-30T02:40:27;0.00;99.90
15364;DHT22;7781;49.690;6.472;2024-01-30T02:42:56;0.00;99.90
15364;DHT22;7781;49.690;6.472;2024-01-30T02:45:25;0.10;99.90
15364;DHT22;7781;49.690;6.472;2024-01-30T02:47:53;0.10;99.90
15364;DHT22;7781;49.690;6.472;2024-01-30T02:50:22;0.10;99.90
15364;DHT22;7781;49.690;6.472;2024-01-30T02:52:50;0.10;99.90
15364;DHT22;7781;49.690;6.472;2024-01-30T02:55:19;0.10;99.90
15364;DHT22;7781;49.690;6.472;2024-01-30T02:57:49;0.10;99.90
15364;DHT22;7781;49.690;6.472;2024-01-30T03:00:20;0.10;99.90
15364;DHT22;7781;49.690;6.472;2024-01-30T03:02:49;0.10;99.90
15364;DHT22;7781;49.690;6.472;2024-01-30T03:05:19;0.00;99.90
15364;DHT22;7781;49.690;6.472;2024-01-30T03:07:48;0.00;99.90
15364;DHT22;7781;49.690;6.472;2024-01-30T03:10:17;0.10;99.90
15364;DHT22;7781;49.690;6.472;2024-01-30T03:12:46;0.10;99.90
15364;DHT22;7781;49.690;6.472;2024-01-30T03:15:16;0.00;99.90
15364;DHT22;7781;49.690;6.472;2024-01-30T03:17:45;0.10;99.90
15364;DHT22;7781;49.690;6.472;2024-01-30T03:20:14;0.10;99.90
15364;DHT22;7781;49.690;6.472;2024-01-30T03:22:43;0.10;99.90
15364;DHT22;7781;49.690;6.472;2024-01-30T03:25:12;0.20;99.90
15364;DHT22;7781;49.690;6.472;2024-01-30T03:27:40;0.20;99.90
15364;DHT22;7781;49.690;6.472;2024-01-30T03:30:10;0.20;99.90
15364;DHT22;7781;49.690;6.472;2024-01-30T03:32:42;0.20;99.90
15364;DHT22;7781;49.690;6.472;2024-01-30T03:35:11;0.20;99.90
15364;DHT22;7781;49.690;6.472;2024-01-30T03:37:40;0.30;99.90
15364;DHT22;7781;49.690;6.472;2024-01-30T03:40:10;0.20;99.90
15364;DHT22;7781;49.690;6.472;2024-01-30T03:42:39;0.20;99.90
15364;DHT22;7781;49.690;6.472;2024-01-30T03:45:08;0.20;99.90
15364;DHT22;7781;49.690;6.472;2024-01-30T03:47:37;0.20;99.90
15364;DHT22;7781;49.690;6.472;2024-01-30T03:50:09;0.10;99.90
15364;DHT22;7781;49.690;6.472;2024-01-30T03:52:38;0.10;99.90
15364;DHT22;7781;49.690;6.472;2024-01-30T03:55:08;0.10;99.90
15364;DHT22;7781;49.690;6.472;2024-01-30T03:57:37;0.10;99.90
15364;DHT22;7781;49.690;6.472;2024-01-30T04:00:07;0.10;99.90
15364;DHT22;7781;49.690;6.472;2024-01-30T04:02:42;0.10;99.90
15364;DHT22;7781;49.690;6.472;2024-01-30T04:05:14;0.10;99.90
15364;DHT22;7781;49.690;6.472;2024-01-30T04:07:43;0.20;99.90
15364;DHT22;7781;49.690;6.472;2024-01-30T04:10:16;0.20;99.90
15364;DHT22;7781;49.690;6.472;2024-01-30T04:12:58;0.20;99.90
15364;DHT22;7781;49.690;6.472;2024-01-30T04:15:28;0.20;99.90
15364;DHT22;7781;49.690;6.472;2024-01-30T04:17:59;0.10;99.90
15364;DHT22;7781;49.690;6.472;2024-01-30T04:20:36;0.10;99.90
15364;DHT22;7781;49.690;6.472;2024-01-30T04:23:05;0.10;99.90
15364;DHT22;7781;49.690;6.472;2024-01-30T04:25:36;0.00;99.90
15364;DHT22;7781;49.690;6.472;2024-01-30T04:28:10;0.00;99.90
15364;DHT22;7781;49.690;6.472;2024-01-30T04:30:41;0.00;99.90
15364;DHT22;7781;49.690;6.472;2024-01-30T04:33:14;0.00;99.90
15364;DHT22;7781;49.690;6.472;2024-01-30T04:35:48;0.00;99.90
15364;DHT22;7781;49.690;6.472;2024-01-30T04:38:23;-0.10;99.90
15364;DHT22;7781;49.690;6.472;2024-01-30T04:41:10;0.00;99.90
15364;DHT22;7781;49.690;6.472;2024-01-30T04:43:43;-0.10;99.90
15364;DHT22;7781;49.690;6.472;2024-01-30T04:46:21;-0.10;99.90
15364;DHT22;7781;49.690;6.472;2024-01-30T04:48:51;-0.10;99.90
15364;DHT22;7781;49.690;6.472;2024-01-30T04:51:34;-0.20;99.90
15364;DHT22;7781;49.690;6.472;2024-01-30T04:54:12;-0.10;99.90
15364;DHT22;7781;49.690;6.472;2024-01-30T04:56:46;-0.10;99.90
15364;DHT22;7781;49.690;6.472;2024-01-30T04:59:19;-0.10;99.90
15364;DHT22;7781;49.690;6.472;2024-01-30T05:01:56;-0.20;99.90
15364;DHT22;7781;49.690;6.472;2024-01-30T05:04:28;-0.10;99.90
15364;DHT22;7781;49.690;6.472;2024-01-30T05:07:01;-0.10;99.90
15364;DHT22;7781;49.690;6.472;2024-01-30T05:09:33;-0.10;99.90
15364;DHT22;7781;49.690;6.472;2024-01-30T05:12:07;-0.20;99.90
15364;DHT22;7781;49.690;6.472;2024-01-30T05:14:36;-0.20;99.90
15364;DHT22;7781;49.690;6.472;2024-01-30T05:17:06;-0.20;99.90
15364;DHT22;7781;49.690;6.472;2024-01-30T05:19:37;-0.20;99.90
15364;DHT22;7781;49.690;6.472;2024-01-30T05:22:14;-0.20;99.90
15364;DHT22;7781;49.690;6.472;2024-01-30T05:24:45;-0.20;99.90
15364;DHT22;7781;49.690;6.472;2024-01-30T05:27:41;-0.20;99.90
15364;DHT22;7781;49.690;6.472;2024-01-30T05:30:13;-0.20;99.90
15364;DHT22;7781;49.690;6.472;2024-01-30T05:32:46;-0.20;99.90
15364;DHT22;7781;49.690;6.472;2024-01-30T05:35:25;-0.20;99.90
15364;DHT22;7781;49.690;6.472;2024-01-30T05:38:08;-0.20;99.90
15364;DHT22;7781;49.690;6.472;2024-01-30T05:40:43;-0.20;99.90
15364;DHT22;7781;49.690;6.472;2024-01-30T05:43:17;-0.20;99.90
15364;DHT22;7781;49.690;6.472;2024-01-30T05:45:49;-0.10;99.90
15364;DHT22;7781;49.690;6.472;2024-01-30T05:48:18;-0.20;99.90
15364;DHT22;7781;49.690;6.472;2024-01-30T05:50:47;-0.20;99.90
15364;DHT22;7781;49.690;6.472;2024-01-30T05:53:17;-0.10;99.90
15364;DHT22;7781;49.690;6.472;2024-01-30T05:55:46;-0.20;99.90
15364;DHT22;7781;49.690;6.472;2024-01-30T05:58:15;-0.20;99.90
15364;DHT22;7781;49.690;6.472;2024-01-30T06:00:46;-0.10;99.90
15364;DHT22;7781;49.690;6.472;2024-01-30T06:03:21;-0.10;99.90
15364;DHT22;7781;49.690;6.472;2024-01-30T06:05:51;-0.20;99.90
15364;DHT22;7781;49.690;6.472;2024-01-30T06:08:25;-0.20;99.90
15364;DHT22;7781;49.690;6.472;2024-01-30T06:10:54;-0.20;99.90
15364;DHT22;7781;49.690;6.472;2024-01-30T06:13:22;-0.10;99.90
15364;DHT22;7781;49.690;6.472;2024-01-30T06:15:52;-0.10;99.90
15364;DHT22;7781;49.690;6.472;2024-01-30T06:18:21;-0.10;99.90
15364;DHT22;7781;49.690;6.472;2024-01-30T06:20:49;-0.10;99.90
15364;DHT22;7781;49.690;6.472;2024-01-30T06:23:18;-0.10;99.90
15364;DHT22;7781;49.690;6.472;2024-01-30T06:25:49;0.00;99.90
15364;DHT22;7781;49.690;6.472;2024-01-30T06:28:17;0.00;99.90
15364;DHT22;7781;49.690;6.472;2024-01-30T06:30:46;0.00;99.90
15364;DHT22;7781;49.690;6.472;2024-01-30T06:33:15;0.00;99.90
15364;DHT22;7781;49.690;6.472;2024-01-30T06:35:44;0.00;99.90
15364;DHT22;7781;49.690;6.472;2024-01-30T06:38:12;0.00;99.90
15364;DHT22;7781;49.690;6.472;2024-01-30T06:40:42;0.00;99.90
15364;DHT22;7781;49.690;6.472;2024-01-30T06:43:12;0.00;99.90
15364;DHT22;7781;49.690;6.472;2024-01-30T06:45:42;-0.10;99.90
15364;DHT22;7781;49.690;6.472;2024-01-30T06:48:11;-0.10;99.90
15364;DHT22;7781;49.690;6.472;2024-01-30T06:50:40;-0.10;99.90
15364;DHT22;7781;49.690;6.472;2024-01-30T06:53:09;-0.10;99.90
15364;DHT22;7781;49.690;6.472;2024-01-30T06:55:39;-0.10;99.90
15364;DHT22;7781;49.690;6.472;2024-01-30T06:58:08;-0.10;99.90
15364;DHT22;7781;49.690;6.472;2024-01-30T07:00:39;-0.10;99.90
15364;DHT22;7781;49.690;6.472;2024-01-30T07:03:10;0.00;99.90
15364;DHT22;7781;49.690;6.472;2024-01-30T07:05:39;-0.10;99.90
15364;DHT22;7781;49.690;6.472;2024-01-30T07:08:07;0.00;99.90
15364;DHT22;7781;49.690;6.472;2024-01-30T07:10:36;0.00;99.90
15364;DHT22;7781;49.690;6.472;2024-01-30T07:13:05;0.00;99.90
15364;DHT22;7781;49.690;6.472;2024-01-30T07:15:34;0.00;99.90
15364;DHT22;7781;49.690;6.472;2024-01-30T07:18:06;0.10;99.90
15364;DHT22;7781;49.690;6.472;2024-01-30T07:20:35;0.10;99.90
15364;DHT22;7781;49.690;6.472;2024-01-30T07:23:03;0.10;99.90
15364;DHT22;7781;49.690;6.472;2024-01-30T07:25:33;0.10;99.90
15364;DHT22;7781;49.690;6.472;2024-01-30T07:28:04;0.10;99.90
15364;DHT22;7781;49.690;6.472;2024-01-30T07:30:33;0.10;99.90
15364;DHT22;7781;49.690;6.472;2024-01-30T07:33:01;0.10;99.90
15364;DHT22;7781;49.690;6.472;2024-01-30T07:35:31;0.20;99.90
15364;DHT22;7781;49.690;6.472;2024-01-30T07:38:01;0.20;99.90
15364;DHT22;7781;49.690;6.472;2024-01-30T07:40:31;0.20;99.90
15364;DHT22;7781;49.690;6.472;2024-01-30T07:43:00;0.30;99.90
15364;DHT22;7781;49.690;6.472;2024-01-30T07:45:30;0.30;99.90
15364;DHT22;7781;49.690;6.472;2024-01-30T07:48:02;0.30;99.90
15364;DHT22;7781;49.690;6.472;2024-01-30T07:50:32;0.30;99.90
15364;DHT22;7781;49.690;6.472;2024-01-30T07:53:01;0.40;99.90
15364;DHT22;7781;49.690;6.472;2024-01-30T07:55:31;0.40;99.90
15364;DHT22;7781;49.690;6.472;2024-01-30T07:58:00;0.40;99.90
15364;DHT22;7781;49.690;6.472;2024-01-30T08:00:29;0.50;99.90
15364;DHT22;7781;49.690;6.472;2024-01-30T08:02:57;0.60;99.90
15364;DHT22;7781;49.690;6.472;2024-01-30T08:05:26;0.60;99.90
15364;DHT22;7781;49.690;6.472;2024-01-30T08:07:56;0.70;99.90
15364;DHT22;7781;49.690;6.472;2024-01-30T08:10:25;0.70;99.90
15364;DHT22;7781;49.690;6.472;2024-01-30T08:12:55;0.80;99.90
15364;DHT22;7781;49.690;6.472;2024-01-30T08:15:24;0.90;99.90
15364;DHT22;7781;49.690;6.472;2024-01-30T08:17:53;0.90;99.90
15364;DHT22;7781;49.690;6.472;2024-01-30T08:20:25;0.90;99.90
15364;DHT22;7781;49.690;6.472;2024-01-30T08:22:53;1.00;99.90
15364;DHT22;7781;49.690;6.472;2024-01-30T08:25:24;1.10;99.90
15364;DHT22;7781;49.690;6.472;2024-01-30T08:27:53;1.10;99.90
15364;DHT22;7781;49.690;6.472;2024-01-30T08:30:22;1.10;99.90
15364;DHT22;7781;49.690;6.472;2024-01-30T08:32:50;1.10;99.90
15364;DHT22;7781;49.690;6.472;2024-01-30T08:35:20;1.10;99.90
15364;DHT22;7781;49.690;6.472;2024-01-30T08:37:50;1.10;99.90
15364;DHT22;7781;49.690;6.472;2024-01-30T08:40:19;1.10;99.90
15364;DHT22;7781;49.690;6.472;2024-01-30T08:42:49;1.20;99.90
15364;DHT22;7781;49.690;6.472;2024-01-30T08:45:17;1.30;99.90
15364;DHT22;7781;49.690;6.472;2024-01-30T08:47:46;1.30;99.90
15364;DHT22;7781;49.690;6.472;2024-01-30T08:50:14;1.40;99.90
15364;DHT22;7781;49.690;6.472;2024-01-30T08:52:43;1.40;99.90
15364;DHT22;7781;49.690;6.472;2024-01-30T08:55:15;1.50;99.90
15364;DHT22;7781;49.690;6.472;2024-01-30T08:57:43;1.60;99.90
15364;DHT22;7781;49.690;6.472;2024-01-30T09:00:16;1.60;99.90
15364;DHT22;7781;49.690;6.472;2024-01-30T09:02:44;1.70;99.90
15364;DHT22;7781;49.690;6.472;2024-01-30T09:05:13;1.80;99.90
15364;DHT22;7781;49.690;6.472;2024-01-30T09:07:41;1.90;99.90
15364;DHT22;7781;49.690;6.472;2024-01-30T09:10:10;2.00;99.90
15364;DHT22;7781;49.690;6.472;2024-01-30T09:12:41;2.00;99.90
15364;DHT22;7781;49.690;6.472;2024-01-30T09:15:10;2.10;99.90
15364;DHT22;7781;49.690;6.472;2024-01-30T09:17:41;2.10;99.90
15364;DHT22;7781;49.690;6.472;2024-01-30T09:20:10;2.20;99.90
15364;DHT22;7781;49.690;6.472;2024-01-30T09:22:40;2.30;99.90
15364;DHT22;7781;49.690;6.472;2024-01-30T09:25:08;2.40;99.90
15364;DHT22;7781;49.690;6.472;2024-01-30T09:27:37;2.50;99.90
15364;DHT22;7781;49.690;6.472;2024-01-30T09:30:07;2.60;99.90
15364;DHT22;7781;49.690;6.472;2024-01-30T09:32:36;2.70;99.90
15364;DHT22;7781;49.690;6.472;2024-01-30T09:35:08;2.80;99.90
15364;DHT22;7781;49.690;6.472;2024-01-30T09:37:38;2.70;99.90
15364;DHT22;7781;49.690;6.472;2024-01-30T09:40:08;2.70;99.90
15364;DHT22;7781;49.690;6.472;2024-01-30T09:42:37;2.80;99.90
15364;DHT22;7781;49.690;6.472;2024-01-30T09:45:14;2.90;99.90
15364;DHT22;7781;49.690;6.472;2024-01-30T09:47:44;3.00;99.90
15364;DHT22;7781;49.690;6.472;2024-01-30T09:50:15;3.20;99.90
15364;DHT22;7781;49.690;6.472;2024-01-30T09:52:44;3.30;99.90
15364;DHT22;7781;49.690;6.472;2024-01-30T09:55:14;3.40;99.90
15364;DHT22;7781;49.690;6.472;2024-01-30T09:57:42;3.50;99.90
15364;DHT22;7781;49.690;6.472;2024-01-30T10:00:12;3.50;99.90
15364;DHT22;7781;49.690;6.472;2024-01-30T10:02:40;3.60;99.90
15364;DHT22;7781;49.690;6.472;2024-01-30T10:05:09;3.70;99.90
15364;DHT22;7781;49.690;6.472;2024-01-30T10:07:50;3.80;99.90
15364;DHT22;7781;49.690;6.472;2024-01-30T10:10:19;3.80;99.90
15364;DHT22;7781;49.690;6.472;2024-01-30T10:12:49;3.80;99.90
15364;DHT22;7781;49.690;6.472;2024-01-30T10:15:19;3.90;99.90
15364;DHT22;7781;49.690;6.472;2024-01-30T10:17:47;3.90;99.90
15364;DHT22;7781;49.690;6.472;2024-01-30T10:20:16;3.90;99.90
15364;DHT22;7781;49.690;6.472;2024-01-30T10:22:48;4.00;99.90
15364;DHT22;7781;49.690;6.472;2024-01-30T10:25:17;4.10;99.90
15364;DHT22;7781;49.690;6.472;2024-01-30T10:27:47;4.20;99.90
15364;DHT22;7781;49.690;6.472;2024-01-30T10:30:15;4.20;99.90
15364;DHT22;7781;49.690;6.472;2024-01-30T10:32:44;4.30;99.90
15364;DHT22;7781;49.690;6.472;2024-01-30T10:35:13;4.40;99.90
15364;DHT22;7781;49.690;6.472;2024-01-30T10:37:43;4.50;99.90
15364;DHT22;7781;49.690;6.472;2024-01-30T10:40:14;4.50;99.90
15364;DHT22;7781;49.690;6.472;2024-01-30T10:42:44;4.60;99.90
15364;DHT22;7781;49.690;6.472;2024-01-30T10:45:14;4.70;99.90
15364;DHT22;7781;49.690;6.472;2024-01-30T10:47:48;4.80;99.90
15364;DHT22;7781;49.690;6.472;2024-01-30T10:50:17;4.90;99.90
15364;DHT22;7781;49.690;6.472;2024-01-30T10:52:47;5.00;99.90
15364;DHT22;7781;49.690;6.472;2024-01-30T10:55:19;5.10;99.90
15364;DHT22;7781;49.690;6.472;2024-01-30T10:57:49;5.20;99.90
15364;DHT22;7781;49.690;6.472;2024-01-30T11:00:19;5.20;99.90
15364;DHT22;7781;49.690;6.472;2024-01-30T11:02:51;5.30;99.90
15364;DHT22;7781;49.690;6.472;2024-01-30T11:05:27;5.50;99.90
15364;DHT22;7781;49.690;6.472;2024-01-30T11:08:11;5.50;99.90
15364;DHT22;7781;49.690;6.472;2024-01-30T11:10:54;5.60;99.90
15364;DHT22;7781;49.690;6.472;2024-01-30T11:13:22;5.70;99.90
15364;DHT22;7781;49.690;6.472;2024-01-30T11:15:55;5.70;99.90
15364;DHT22;7781;49.690;6.472;2024-01-30T11:18:26;5.80;99.90
15364;DHT22;7781;49.690;6.472;2024-01-30T11:20:57;5.90;99.90
15364;DHT22;7781;49.690;6.472;2024-01-30T11:23:30;5.90;99.90
15364;DHT22;7781;49.690;6.472;2024-01-30T11:26:01;6.00;99.90
15364;DHT22;7781;49.690;6.472;2024-01-30T11:28:32;6.10;99.90
15364;DHT22;7781;49.690;6.472;2024-01-30T11:31:05;6.10;99.90
15364;DHT22;7781;49.690;6.472;2024-01-30T11:33:35;6.20;99.90
15364;DHT22;7781;49.690;6.472;2024-01-30T11:36:05;6.30;99.90
15364;DHT22;7781;49.690;6.472;2024-01-30T11:38:34;6.30;99.90
15364;DHT22;7781;49.690;6.472;2024-01-30T11:41:05;6.30;99.90
15364;DHT22;7781;49.690;6.472;2024-01-30T11:43:34;6.40;99.90
15364;DHT22;7781;49.690;6.472;2024-01-30T11:46:03;6.50;99.90
15364;DHT22;7781;49.690;6.472;2024-01-30T11:48:33;6.50;99.90
15364;DHT22;7781;49.690;6.472;2024-01-30T11:51:02;6.50;99.90
15364;DHT22;7781;49.690;6.472;2024-01-30T11:53:31;6.60;99.90
15364;DHT22;7781;49.690;6.472;2024-01-30T11:56:00;6.70;99.90
15364;DHT22;7781;49.690;6.472;2024-01-30T11:58:30;6.70;99.90
15364;DHT22;7781;49.690;6.472;2024-01-30T12:00:59;6.90;99.90
15364;DHT22;7781;49.690;6.472;2024-01-30T12:03:27;6.90;99.90
15364;DHT22;7781;49.690;6.472;2024-01-30T12:05:58;6.90;99.90
15364;DHT22;7781;49.690;6.472;2024-01-30T12:08:27;7.00;99.90
15364;DHT22;7781;49.690;6.472;2024-01-30T12:10:56;7.00;99.90
15364;DHT22;7781;49.690;6.472;2024-01-30T12:13:30;7.20;99.90
15364;DHT22;7781;49.690;6.472;2024-01-30T12:16:00;7.30;99.90
15364;DHT22;7781;49.690;6.472;2024-01-30T12:18:29;7.30;99.90
15364;DHT22;7781;49.690;6.472;2024-01-30T12:21:01;7.40;99.90
15364;DHT22;7781;49.690;6.472;2024-01-30T12:23:31;7.50;99.90
15364;DHT22;7781;49.690;6.472;2024-01-30T12:26:00;7.60;99.90
15364;DHT22;7781;49.690;6.472;2024-01-30T12:28:32;7.70;99.90
15364;DHT22;7781;49.690;6.472;2024-01-30T12:31:01;7.70;99.90
15364;DHT22;7781;49.690;6.472;2024-01-30T12:33:31;7.80;99.90
15364;DHT22;7781;49.690;6.472;2024-01-30T12:36:02;7.90;99.90
15364;DHT22;7781;49.690;6.472;2024-01-30T12:38:32;8.00;99.90
15364;DHT22;7781;49.690;6.472;2024-01-30T12:41:01;8.10;99.90
15364;DHT22;7781;49.690;6.472;2024-01-30T12:43:31;8.20;99.90
15364;DHT22;7781;49.690;6.472;2024-01-30T12:46:06;8.40;99.90
15364;DHT22;7781;49.690;6.472;2024-01-30T12:48:34;8.50;99.90
15364;DHT22;7781;49.690;6.472;2024-01-30T12:51:03;8.60;99.90
15364;DHT22;7781;49.690;6.472;2024-01-30T12:53:33;8.70;99.90
15364;DHT22;7781;49.690;6.472;2024-01-30T12:56:02;8.70;99.90
15364;DHT22;7781;49.690;6.472;2024-01-30T12:58:34;8.70;99.90
15364;DHT22;7781;49.690;6.472;2024-01-30T13:01:04;8.80;99.90
15364;DHT22;7781;49.690;6.472;2024-01-30T13:03:33;8.90;99.90
15364;DHT22;7781;49.690;6.472;2024-01-30T13:06:04;8.90;99.90
15364;DHT22;7781;49.690;6.472;2024-01-30T13:08:33;8.90;99.90
15364;DHT22;7781;49.690;6.472;2024-01-30T13:11:04;8.90;99.90
15364;DHT22;7781;49.690;6.472;2024-01-30T13:13:38;8.90;99.90
15364;DHT22;7781;49.690;6.472;2024-01-30T13:16:07;8.90;99.90
15364;DHT22;7781;49.690;6.472;2024-01-30T13:18:36;9.00;99.90
15364;DHT22;7781;49.690;6.472;2024-01-30T13:21:04;9.00;99.90
15364;DHT22;7781;49.690;6.472;2024-01-30T13:23:34;9.00;99.90
15364;DHT22;7781;49.690;6.472;2024-01-30T13:26:03;9.10;99.90
15364;DHT22;7781;49.690;6.472;2024-01-30T13:28:32;9.10;99.90
15364;DHT22;7781;49.690;6.472;2024-01-30T13:31:02;9.10;99.90
15364;DHT22;7781;49.690;6.472;2024-01-30T13:33:33;9.10;99.90
15364;DHT22;7781;49.690;6.472;2024-01-30T13:36:02;9.10;99.90
15364;DHT22;7781;49.690;6.472;2024-01-30T13:38:31;9.10;99.90
15364;DHT22;7781;49.690;6.472;2024-01-30T13:41:00;9.10;99.90
15364;DHT22;7781;49.690;6.472;2024-01-30T13:43:28;9.10;99.90
15364;DHT22;7781;49.690;6.472;2024-01-30T13:46:02;9.10;99.90
15364;DHT22;7781;49.690;6.472;2024-01-30T13:48:31;9.20;99.90
15364;DHT22;7781;49.690;6.472;2024-01-30T13:51:00;9.20;99.90
15364;DHT22;7781;49.690;6.472;2024-01-30T13:53:29;9.20;99.90
15364;DHT22;7781;49.690;6.472;2024-01-30T13:55:58;9.20;99.90
15364;DHT22;7781;49.690;6.472;2024-01-30T13:58:26;9.20;99.90
15364;DHT22;7781;49.690;6.472;2024-01-30T14:00:55;9.20;99.90
15364;DHT22;7781;49.690;6.472;2024-01-30T14:03:25;9.20;99.90
15364;DHT22;7781;49.690;6.472;2024-01-30T14:05:54;9.20;99.90
15364;DHT22;7781;49.690;6.472;2024-01-30T14:08:24;9.20;99.90
15364;DHT22;7781;49.690;6.472;2024-01-30T14:10:56;9.20;99.90
15364;DHT22;7781;49.690;6.472;2024-01-30T14:13:25;9.30;99.90
15364;DHT22;7781;49.690;6.472;2024-01-30T14:15:54;9.30;99.90
15364;DHT22;7781;49.690;6.472;2024-01-30T14:18:23;9.30;99.90
15364;DHT22;7781;49.690;6.472;2024-01-30T14:20:54;9.30;99.90
15364;DHT22;7781;49.690;6.472;2024-01-30T14:23:23;9.40;99.90
15364;DHT22;7781;49.690;6.472;2024-01-30T14:25:52;9.40;99.90
15364;DHT22;7781;49.690;6.472;2024-01-30T14:28:21;9.40;99.90
15364;DHT22;7781;49.690;6.472;2024-01-30T14:30:50;9.40;99.90
15364;DHT22;7781;49.690;6.472;2024-01-30T14:33:18;9.40;99.90
15364;DHT22;7781;49.690;6.472;2024-01-30T14:35:47;9.40;99.90
15364;DHT22;7781;49.690;6.472;2024-01-30T14:38:17;9.50;99.90
15364;DHT22;7781;49.690;6.472;2024-01-30T14:40:45;9.50;99.90
15364;DHT22;7781;49.690;6.472;2024-01-30T14:43:14;9.50;99.90
15364;DHT22;7781;49.690;6.472;2024-01-30T14:45:43;9.50;99.90
15364;DHT22;7781;49.690;6.472;2024-01-30T14:48:13;9.50;99.90
15364;DHT22;7781;49.690;6.472;2024-01-30T14:50:43;9.60;99.90
15364;DHT22;7781;49.690;6.472;2024-01-30T14:53:13;9.60;99.90
15364;DHT22;7781;49.690;6.472;2024-01-30T14:55:44;9.60;99.90
15364;DHT22;7781;49.690;6.472;2024-01-30T14:58:12;9.60;99.90
15364;DHT22;7781;49.690;6.472;2024-01-30T15:00:41;9.60;99.90
15364;DHT22;7781;49.690;6.472;2024-01-30T15:03:10;9.60;99.90
15364;DHT22;7781;49.690;6.472;2024-01-30T15:05:39;9.60;99.90
15364;DHT22;7781;49.690;6.472;2024-01-30T15:08:08;9.60;99.90
15364;DHT22;7781;49.690;6.472;2024-01-30T15:10:37;9.60;99.90
15364;DHT22;7781;49.690;6.472;2024-01-30T15:13:07;9.60;99.90
15364;DHT22;7781;49.690;6.472;2024-01-30T15:15:35;9.60;99.90
15364;DHT22;7781;49.690;6.472;2024-01-30T15:18:08;9.60;99.90
15364;DHT22;7781;49.690;6.472;2024-01-30T15:20:39;9.60;99.90
15364;DHT22;7781;49.690;6.472;2024-01-30T15:23:08;9.60;99.90
15364;DHT22;7781;49.690;6.472;2024-01-30T15:25:38;9.60;99.90
15364;DHT22;7781;49.690;6.472;2024-01-30T15:28:09;9.70;99.90
15364;DHT22;7781;49.690;6.472;2024-01-30T15:30:38;9.60;99.90
15364;DHT22;7781;49.690;6.472;2024-01-30T15:33:06;9.60;99.90
15364;DHT22;7781;49.690;6.472;2024-01-30T15:35:37;9.60;99.90
15364;DHT22;7781;49.690;6.472;2024-01-30T15:38:07;9.60;99.90
15364;DHT22;7781;49.690;6.472;2024-01-30T15:40:36;9.60;99.90
15364;DHT22;7781;49.690;6.472;2024-01-30T15:43:05;9.60;99.90
15364;DHT22;7781;49.690;6.472;2024-01-30T15:45:35;9.60;99.90
15364;DHT22;7781;49.690;6.472;2024-01-30T15:48:05;9.60;99.90
15364;DHT22;7781;49.690;6.472;2024-01-30T15:50:36;9.60;99.90
15364;DHT22;7781;49.690;6.472;2024-01-30T15:53:06;9.60;99.90
15364;DHT22;7781;49.690;6.472;2024-01-30T15:55:35;9.60;99.90
15364;DHT22;7781;49.690;6.472;2024-01-30T15:58:04;9.50;99.90
15364;DHT22;7781;49.690;6.472;2024-01-30T16:00:35;9.50;99.90
15364;DHT22;7781;49.690;6.472;2024-01-30T16:03:05;9.50;99.90
15364;DHT22;7781;49.690;6.472;2024-01-30T16:05:34;9.50;99.90
15364;DHT22;7781;49.690;6.472;2024-01-30T16:08:03;9.40;99.90
15364;DHT22;7781;49.690;6.472;2024-01-30T16:10:33;9.40;99.90
15364;DHT22;7781;49.690;6.472;2024-01-30T16:13:03;9.40;99.90
15364;DHT22;7781;49.690;6.472;2024-01-30T16:15:32;9.40;99.90
15364;DHT22;7781;49.690;6.472;2024-01-30T16:18:03;9.40;99.90